createdAt,value
2023-04-09T00:00:04.008Z,4.000000
2023-04-09T00:01:01.014Z,4.400000
2023-04-09T00:02:02.150Z,4.400000
2023-04-09T00:03:01.080Z,0.000000
2023-04-09T00:04:02.497Z,0.000000
2023-04-09T00:05:03.600Z,4.400000
2023-04-09T00:06:01.107Z,4.400000
2023-04-09T00:07:01.029Z,4.400000
2023-04-09T00:08:02.132Z,4.400000
2023-04-09T00:09:01.042Z,4.400000
2023-04-09T00:10:07.137Z,5.100000
2023-04-09T00:11:01.045Z,5.100000
2023-04-09T00:13:06.001Z,0.000000
2023-04-09T00:14:02.175Z,0.000000
2023-04-09T00:15:03.558Z,0.000000
2023-04-09T00:16:16.721Z,0.000000
2023-04-09T00:17:01.064Z,0.000000
2023-04-09T00:20:17.423Z,0.000000
2023-04-09T00:21:01.137Z,4.300000
2023-04-09T00:22:02.406Z,4.300000
2023-04-09T00:23:01.104Z,4.300000
2023-04-09T00:24:01.231Z,0.000000
2023-04-09T00:25:03.601Z,0.000000
2023-04-09T00:26:02.413Z,0.000000
2023-04-09T00:27:01.132Z,0.000000
2023-04-09T00:33:29.724Z,0.000000
2023-04-09T00:34:01.261Z,0.000000
2023-04-09T00:35:05.223Z,0.000000
2023-04-09T00:36:01.353Z,4.000000
2023-04-09T00:37:01.187Z,4.000000
2023-04-09T00:38:01.283Z,4.000000
2023-04-09T00:39:01.384Z,4.000000
2023-04-09T00:40:04.230Z,4.000000
2023-04-09T00:41:01.209Z,4.000000
2023-04-09T00:42:02.891Z,4.000000
2023-04-09T00:43:00.216Z,4.000000
2023-04-09T00:44:00.331Z,4.000000
2023-04-09T00:45:03.327Z,4.000000
2023-04-09T00:46:00.342Z,0.000000
2023-04-09T00:47:00.246Z,0.000000
2023-04-09T00:48:00.376Z,0.000000
2023-04-09T00:49:00.303Z,0.000000
2023-04-09T00:50:04.708Z,0.000000
2023-04-09T00:51:00.299Z,0.000000
2023-04-09T00:52:00.349Z,0.000000
2023-04-09T00:53:00.288Z,0.000000
2023-04-09T00:54:00.368Z,0.000000
2023-04-09T00:55:03.314Z,0.000000
2023-04-09T00:56:00.437Z,0.000000
2023-04-09T00:57:00.315Z,0.000000
2023-04-09T00:58:00.362Z,0.000000
2023-04-09T00:59:00.307Z,0.000000
2023-04-09T01:00:05.182Z,0.000000
2023-04-09T01:01:00.349Z,0.000000
2023-04-09T01:02:00.516Z,0.000000
2023-04-09T01:03:00.393Z,0.000000
2023-04-09T01:04:00.401Z,0.000000
2023-04-09T01:05:02.838Z,0.000000
2023-04-09T01:06:00.420Z,0.000000
2023-04-09T01:07:00.332Z,0.000000
2023-04-09T01:08:00.451Z,0.000000
2023-04-09T01:09:00.349Z,0.000000
2023-04-09T01:10:03.281Z,0.000000
2023-04-09T01:11:00.373Z,0.000000
2023-04-09T01:12:00.438Z,0.000000
2023-04-09T01:13:00.364Z,0.000000
2023-04-09T01:14:00.444Z,0.000000
2023-04-09T01:15:02.930Z,0.000000
2023-04-09T01:16:00.482Z,0.000000
2023-04-09T01:17:00.390Z,0.000000
2023-04-09T01:18:00.489Z,0.000000
2023-04-09T01:19:00.379Z,0.000000
2023-04-09T01:20:03.383Z,0.000000
2023-04-09T01:21:00.402Z,0.000000
2023-04-09T01:22:00.487Z,0.000000
2023-04-09T01:23:00.388Z,0.000000
2023-04-09T01:24:00.478Z,0.000000
2023-04-09T01:25:02.899Z,0.000000
2023-04-09T01:26:00.510Z,0.000000
2023-04-09T01:27:00.424Z,0.000000
2023-04-09T01:28:00.496Z,0.000000
2023-04-09T01:29:00.421Z,0.000000
2023-04-09T01:30:03.561Z,0.000000
2023-04-09T01:31:00.475Z,0.000000
2023-04-09T01:32:00.558Z,0.000000
2023-04-09T01:33:00.451Z,0.000000
2023-04-09T01:34:00.531Z,0.000000
2023-04-09T01:35:02.936Z,0.000000
2023-04-09T01:36:00.611Z,5.500000
2023-04-09T01:37:00.484Z,5.500000
2023-04-09T01:38:00.565Z,5.500000
2023-04-09T01:39:00.492Z,5.500000
2023-04-09T01:40:03.989Z,5.500000
2023-04-09T01:41:00.496Z,5.500000
2023-04-09T01:42:00.591Z,4.700000
2023-04-09T01:43:00.492Z,4.700000
2023-04-09T01:44:00.643Z,4.700000
2023-04-09T01:45:03.052Z,6.700000
2023-04-09T01:46:00.600Z,6.700000
2023-04-09T01:47:00.516Z,6.700000
2023-04-09T01:48:00.600Z,6.700000
2023-04-09T01:49:00.514Z,5.700000
2023-04-09T01:50:03.410Z,5.700000
2023-04-09T01:51:00.535Z,5.700000
2023-04-09T01:52:00.619Z,5.500000
2023-04-09T01:53:00.537Z,5.500000
2023-04-09T01:54:00.635Z,5.500000
2023-04-09T01:55:03.224Z,5.500000
2023-04-09T01:56:00.671Z,5.500000
2023-04-09T01:57:00.552Z,6.200000
2023-04-09T01:58:00.620Z,6.200000
2023-04-09T01:59:00.570Z,6.300000
2023-04-09T02:00:04.953Z,6.300000
2023-04-09T02:01:00.597Z,6.300000
2023-04-09T02:02:00.755Z,0.000000
2023-04-09T02:03:00.792Z,0.000000
2023-04-09T02:04:00.746Z,0.000000
2023-04-09T02:05:03.139Z,0.000000
2023-04-09T02:06:00.685Z,0.000000
2023-04-09T02:07:00.602Z,0.000000
2023-04-09T02:08:00.729Z,4.000000
2023-04-09T02:09:00.635Z,4.000000
2023-04-09T02:10:03.822Z,4.000000
2023-04-09T02:11:00.616Z,4.000000
2023-04-09T02:12:00.706Z,4.000000
2023-04-09T02:13:00.637Z,4.000000
2023-04-09T02:14:00.719Z,4.000000
2023-04-09T02:15:04.683Z,0.000000
2023-04-09T02:16:00.749Z,0.000000
2023-04-09T02:17:00.650Z,0.000000
2023-04-09T02:18:00.752Z,0.000000
2023-04-09T02:19:00.646Z,0.000000
2023-04-09T02:20:03.562Z,0.000000
2023-04-09T02:21:00.663Z,0.000000
2023-04-09T02:22:00.712Z,0.000000
2023-04-09T02:23:00.683Z,0.000000
2023-04-09T02:24:00.772Z,0.000000
2023-04-09T02:25:04.297Z,0.000000
2023-04-09T02:26:00.741Z,0.000000
2023-04-09T02:27:00.693Z,0.000000
2023-04-09T02:28:00.745Z,0.000000
2023-04-09T02:29:00.694Z,0.000000
2023-04-09T02:30:03.375Z,4.000000
2023-04-09T02:31:00.743Z,4.000000
2023-04-09T02:32:00.804Z,0.000000
2023-04-09T02:33:00.719Z,0.000000
2023-04-09T02:34:00.774Z,0.000000
2023-04-09T02:35:03.857Z,0.000000
2023-04-09T02:36:00.830Z,0.000000
2023-04-09T02:37:00.781Z,0.000000
2023-04-09T02:38:00.793Z,0.000000
2023-04-09T02:39:00.742Z,0.000000
2023-04-09T02:40:03.553Z,4.400000
2023-04-09T02:41:00.756Z,4.400000
2023-04-09T02:42:00.849Z,0.000000
2023-04-09T02:43:00.789Z,0.000000
2023-04-09T02:44:00.823Z,0.000000
2023-04-09T02:45:03.425Z,0.000000
2023-04-09T02:46:00.892Z,0.000000
2023-04-09T02:47:00.773Z,0.000000
2023-04-09T02:48:00.849Z,0.000000
2023-04-09T02:49:00.961Z,0.000000
2023-04-09T02:50:03.821Z,0.000000
2023-04-09T02:51:00.789Z,0.000000
2023-04-09T02:52:00.929Z,0.000000
2023-04-09T02:53:00.857Z,0.000000
2023-04-09T02:54:00.892Z,0.000000
2023-04-09T02:55:03.312Z,0.000000
2023-04-09T02:56:00.908Z,0.000000
2023-04-09T02:57:00.814Z,0.000000
2023-04-09T02:58:00.881Z,0.000000
2023-04-09T02:59:00.818Z,0.000000
2023-04-09T03:00:03.872Z,0.000000
2023-04-09T03:01:00.878Z,0.000000
2023-04-09T03:02:00.953Z,0.000000
2023-04-09T03:03:01.116Z,0.000000
2023-04-09T03:04:01.067Z,0.000000
2023-04-09T03:05:03.329Z,0.000000
2023-04-09T03:06:00.946Z,0.000000
2023-04-09T03:07:00.892Z,0.000000
2023-04-09T03:08:00.946Z,0.000000
2023-04-09T03:09:00.870Z,0.000000
2023-04-09T03:10:03.761Z,0.000000
2023-04-09T03:11:00.874Z,0.000000
2023-04-09T03:12:00.985Z,0.000000
2023-04-09T03:13:00.929Z,0.000000
2023-04-09T03:14:00.943Z,0.000000
2023-04-09T03:15:03.342Z,0.000000
2023-04-09T03:16:01.007Z,0.000000
2023-04-09T03:17:00.893Z,0.000000
2023-04-09T03:18:01.035Z,0.000000
2023-04-09T03:19:00.915Z,0.000000
2023-04-09T03:20:03.795Z,0.000000
2023-04-09T03:21:00.926Z,0.000000
2023-04-09T03:22:01.001Z,0.000000
2023-04-09T03:23:00.922Z,0.000000
2023-04-09T03:24:01.027Z,0.000000
2023-04-09T03:25:03.401Z,0.000000
2023-04-09T03:26:04.179Z,0.000000
2023-04-09T03:27:00.955Z,0.000000
2023-04-09T03:33:32.896Z,5.400000
2023-04-09T03:34:01.064Z,5.400000
2023-04-09T03:35:03.487Z,5.400000
2023-04-09T03:36:01.136Z,0.000000
2023-04-09T03:37:01.006Z,0.000000
2023-04-09T03:38:01.075Z,0.000000
2023-04-09T03:39:01.045Z,0.000000
2023-04-09T03:40:03.912Z,0.000000
2023-04-09T03:41:01.035Z,0.000000
2023-04-09T03:42:02.609Z,0.000000
2023-04-09T03:43:01.036Z,6.300000
2023-04-09T03:44:01.092Z,6.300000
2023-04-09T03:45:03.512Z,6.300000
2023-04-09T03:46:01.121Z,0.000000
2023-04-09T03:47:01.052Z,0.000000
2023-04-09T03:48:01.197Z,0.000000
2023-04-09T03:49:01.074Z,0.000000
2023-04-09T03:50:04.094Z,0.000000
2023-04-09T03:51:01.127Z,0.000000
2023-04-09T03:52:01.140Z,0.000000
2023-04-09T03:53:01.074Z,0.000000
2023-04-09T03:54:01.162Z,0.000000
2023-04-09T03:55:03.577Z,0.000000
2023-04-09T03:56:01.169Z,0.000000
2023-04-09T03:57:01.091Z,0.000000
2023-04-09T03:58:01.218Z,4.000000
2023-04-09T03:59:01.086Z,4.000000
2023-04-09T04:00:04.053Z,0.000000
2023-04-09T04:01:01.158Z,0.000000
2023-04-09T04:02:01.253Z,0.000000
2023-04-09T04:03:01.379Z,0.000000
2023-04-09T04:04:01.366Z,0.000000
2023-04-09T04:05:03.573Z,0.000000
2023-04-09T04:06:01.219Z,0.000000
2023-04-09T04:07:01.140Z,0.000000
2023-04-09T04:08:01.233Z,0.000000
2023-04-09T04:09:01.152Z,0.000000
2023-04-09T04:10:04.552Z,0.000000
2023-04-09T04:11:01.167Z,0.000000
2023-04-09T04:12:01.246Z,0.000000
2023-04-09T04:13:01.215Z,0.000000
2023-04-09T04:14:01.267Z,0.000000
2023-04-09T04:15:03.679Z,0.000000
2023-04-09T04:16:01.364Z,0.000000
2023-04-09T04:17:01.205Z,0.000000
2023-04-09T04:18:00.294Z,0.000000
2023-04-09T04:19:00.200Z,0.000000
2023-04-09T04:20:03.290Z,0.000000
2023-04-09T04:21:00.206Z,0.000000
2023-04-09T04:22:00.294Z,0.000000
2023-04-09T04:23:00.206Z,0.000000
2023-04-09T04:24:00.290Z,0.000000
2023-04-09T04:25:03.584Z,0.000000
2023-04-09T04:26:00.331Z,0.000000
2023-04-09T04:27:00.227Z,0.000000
2023-04-09T04:28:00.311Z,0.000000
2023-04-09T04:29:00.225Z,0.000000
2023-04-09T04:30:03.119Z,0.000000
2023-04-09T04:31:00.233Z,0.000000
2023-04-09T04:32:00.472Z,0.000000
2023-04-09T04:33:00.296Z,0.000000
2023-04-09T04:34:00.323Z,6.700000
2023-04-09T04:35:02.934Z,6.700000
2023-04-09T04:36:00.474Z,6.700000
2023-04-09T04:37:00.253Z,6.700000
2023-04-09T04:38:00.431Z,6.700000
2023-04-09T04:39:00.267Z,7.100000
2023-04-09T04:40:03.428Z,7.100000
2023-04-09T04:41:00.265Z,7.100000
2023-04-09T04:42:00.357Z,7.100000
2023-04-09T04:43:00.275Z,7.100000
2023-04-09T04:44:00.471Z,6.900000
2023-04-09T04:45:02.878Z,6.900000
2023-04-09T04:46:00.377Z,6.900000
2023-04-09T04:47:00.312Z,6.900000
2023-04-09T04:48:00.456Z,6.900000
2023-04-09T04:49:00.302Z,4.500000
2023-04-09T04:50:03.339Z,4.500000
2023-04-09T04:51:00.325Z,4.500000
2023-04-09T04:52:00.448Z,5.500000
2023-04-09T04:53:00.310Z,5.500000
2023-04-09T04:54:00.428Z,5.500000
2023-04-09T04:55:02.854Z,5.500000
2023-04-09T04:56:07.623Z,5.500000
2023-04-09T04:57:00.326Z,4.000000
2023-04-09T04:58:01.438Z,4.000000
2023-04-09T04:59:00.344Z,4.900000
2023-04-09T05:00:20.536Z,4.900000
2023-04-09T05:01:00.378Z,4.900000
2023-04-09T05:02:01.531Z,5.700000
2023-04-09T05:03:00.498Z,5.700000
2023-04-09T05:04:03.514Z,5.700000
2023-04-09T05:05:02.908Z,7.200000
2023-04-09T05:06:16.298Z,7.200000
2023-04-09T05:07:00.354Z,7.300000
2023-04-09T05:08:01.549Z,7.300000
2023-04-09T05:09:00.383Z,7.300000
2023-04-09T05:10:04.722Z,7.300000
2023-04-09T05:11:00.378Z,7.000000
2023-04-09T05:12:01.743Z,7.000000
2023-04-09T05:13:00.374Z,7.000000
2023-04-09T05:14:03.587Z,7.000000
2023-04-09T05:15:03.072Z,7.000000
2023-04-09T05:16:01.494Z,7.000000
2023-04-09T05:17:00.470Z,6.200000
2023-04-09T05:18:08.576Z,6.200000
2023-04-09T05:19:00.441Z,4.900000
2023-04-09T05:20:19.822Z,4.900000
2023-04-09T05:21:00.434Z,5.000000
2023-04-09T05:22:00.535Z,5.000000
2023-04-09T05:23:00.442Z,5.000000
2023-04-09T05:24:00.561Z,5.800000
2023-04-09T05:25:03.032Z,5.800000
2023-04-09T05:26:01.739Z,5.800000
2023-04-09T05:27:00.482Z,5.800000
2023-04-09T05:31:21.655Z,0.000000
2023-04-09T05:32:01.691Z,0.000000
2023-04-09T05:33:00.510Z,0.000000
2023-04-09T05:34:00.578Z,7.000000
2023-04-09T05:35:03.050Z,7.000000
2023-04-09T05:36:00.606Z,7.000000
2023-04-09T05:37:00.556Z,7.700000
2023-04-09T05:38:00.634Z,7.700000
2023-04-09T05:39:00.551Z,7.700000
2023-04-09T05:40:04.209Z,7.700000
2023-04-09T05:41:00.556Z,7.700000
2023-04-09T05:42:00.646Z,6.900000
2023-04-09T05:43:00.605Z,6.900000
2023-04-09T05:44:01.134Z,6.900000
2023-04-09T05:45:03.446Z,6.900000
2023-04-09T05:46:01.712Z,6.900000
2023-04-09T05:47:00.603Z,7.100000
2023-04-09T05:48:00.701Z,7.100000
2023-04-09T05:49:00.611Z,7.100000
2023-04-09T05:50:03.535Z,7.100000
2023-04-09T05:51:01.187Z,7.100000
2023-04-09T05:52:00.706Z,6.600000
2023-04-09T05:53:00.616Z,6.600000
2023-04-09T05:54:00.709Z,6.800000
2023-04-09T05:55:03.777Z,6.800000
2023-04-09T05:56:00.735Z,6.800000
2023-04-09T05:57:00.633Z,5.500000
2023-04-09T05:58:00.694Z,5.500000
2023-04-09T05:59:00.629Z,5.500000
2023-04-09T06:00:05.210Z,0.000000
2023-04-09T06:01:00.692Z,0.000000
2023-04-09T06:02:00.803Z,5.500000
2023-04-09T06:03:00.788Z,5.500000
2023-04-09T06:04:01.067Z,5.500000
2023-04-09T06:05:03.278Z,6.600000
2023-04-09T06:06:00.823Z,6.600000
2023-04-09T06:07:00.737Z,6.600000
2023-04-09T06:08:00.809Z,6.600000
2023-04-09T06:09:00.746Z,6.600000
2023-04-09T06:10:03.858Z,6.600000
2023-04-09T06:11:00.753Z,6.600000
2023-04-09T06:12:00.880Z,7.000000
2023-04-09T06:13:00.769Z,7.000000
2023-04-09T06:14:01.702Z,7.000000
2023-04-09T06:15:04.093Z,7.100000
2023-04-09T06:16:00.916Z,7.100000
2023-04-09T06:17:00.781Z,7.100000
2023-04-09T06:18:00.872Z,7.100000
2023-04-09T06:19:00.778Z,7.100000
2023-04-09T06:20:03.602Z,8.200000
2023-04-09T06:21:00.800Z,8.200000
2023-04-09T06:22:00.892Z,8.200000
2023-04-09T06:23:00.804Z,7.100000
2023-04-09T06:24:00.905Z,7.100000
2023-04-09T06:25:03.375Z,8.800000
2023-04-09T06:26:00.884Z,8.800000
2023-04-09T06:27:00.831Z,8.800000
2023-04-09T06:28:01.753Z,8.800000
2023-04-09T06:29:00.847Z,8.800000
2023-04-09T06:30:03.936Z,7.900000
2023-04-09T06:31:00.863Z,7.900000
2023-04-09T06:32:01.743Z,7.900000
2023-04-09T06:33:00.868Z,7.900000
2023-04-09T06:34:00.930Z,7.900000
2023-04-09T06:35:03.372Z,7.100000
2023-04-09T06:36:00.972Z,7.100000
2023-04-09T06:37:00.864Z,7.100000
2023-04-09T06:38:00.942Z,7.100000
2023-04-09T06:39:00.874Z,7.100000
2023-04-09T06:40:03.865Z,6.900000
2023-04-09T06:41:00.875Z,6.900000
2023-04-09T06:42:00.991Z,6.900000
2023-04-09T06:43:00.882Z,6.900000
2023-04-09T06:44:01.007Z,6.900000
2023-04-09T06:45:03.393Z,8.700000
2023-04-09T06:46:01.722Z,8.700000
2023-04-09T06:47:00.893Z,8.700000
2023-04-09T06:48:01.062Z,8.700000
2023-04-09T06:49:00.903Z,8.700000
2023-04-09T06:50:03.760Z,7.700000
2023-04-09T06:51:00.952Z,7.700000
2023-04-09T06:52:00.996Z,7.700000
2023-04-09T06:53:00.936Z,7.600000
2023-04-09T06:54:01.019Z,7.600000
2023-04-09T06:55:03.441Z,7.600000
2023-04-09T06:56:01.032Z,9.500000
2023-04-09T06:57:00.958Z,9.500000
2023-04-09T06:58:01.027Z,9.700000
2023-04-09T06:59:00.955Z,9.700000
2023-04-09T07:01:09.621Z,9.700000
2023-04-09T07:02:01.225Z,9.700000
2023-04-09T07:03:01.445Z,9.400000
2023-04-09T07:04:01.162Z,9.400000
2023-04-09T07:05:03.533Z,9.400000
2023-04-09T07:06:01.116Z,9.400000
2023-04-09T07:07:01.025Z,9.400000
2023-04-09T07:08:01.096Z,8.900000
2023-04-09T07:09:01.046Z,8.900000
2023-04-09T07:10:05.014Z,9.200000
2023-04-09T07:11:01.044Z,9.200000
2023-04-09T07:12:01.722Z,9.200000
2023-04-09T07:13:01.056Z,9.500000
2023-04-09T07:14:01.137Z,9.500000
2023-04-09T07:15:03.611Z,9.500000
2023-04-09T07:16:01.199Z,8.600000
2023-04-09T07:17:01.089Z,8.600000
2023-04-09T07:18:01.323Z,8.600000
2023-04-09T07:19:01.086Z,8.600000
2023-04-09T07:20:04.155Z,10.300000
2023-04-09T07:21:01.107Z,10.300000
2023-04-09T07:22:01.231Z,10.300000
2023-04-09T07:23:01.106Z,11.700000
2023-04-09T07:24:01.184Z,11.700000
2023-04-09T07:25:03.674Z,12.400000
2023-04-09T07:26:01.771Z,12.400000
2023-04-09T07:27:01.130Z,12.400000
2023-04-09T07:30:47.731Z,10.300000
2023-04-09T07:31:01.195Z,10.300000
2023-04-09T07:32:01.726Z,13.800000
2023-04-09T07:33:00.494Z,13.800000
2023-04-09T07:34:00.242Z,13.800000
2023-04-09T07:35:02.708Z,14.600000
2023-04-09T07:36:00.356Z,14.600000
2023-04-09T07:37:00.210Z,14.600000
2023-04-09T07:38:00.263Z,14.600000
2023-04-09T07:39:00.226Z,14.600000
2023-04-09T07:40:03.316Z,13.700000
2023-04-09T07:41:00.202Z,13.700000
2023-04-09T07:42:00.326Z,13.700000
2023-04-09T07:43:00.226Z,17.100000
2023-04-09T07:44:00.296Z,17.100000
2023-04-09T07:45:02.958Z,17.100000
2023-04-09T07:46:01.726Z,14.700000
2023-04-09T07:47:00.343Z,14.700000
2023-04-09T07:48:00.358Z,14.700000
2023-04-09T07:49:00.247Z,18.000000
2023-04-09T07:50:03.275Z,18.000000
2023-04-09T07:51:00.267Z,18.000000
2023-04-09T07:52:00.340Z,18.000000
2023-04-09T07:53:00.261Z,17.500000
2023-04-09T07:54:00.372Z,17.500000
2023-04-09T07:55:02.762Z,17.500000
2023-04-09T07:56:00.338Z,13.700000
2023-04-09T07:57:00.289Z,13.700000
2023-04-09T07:58:00.351Z,16.100000
2023-04-09T07:59:00.295Z,16.100000
2023-04-09T08:00:03.604Z,16.100000
2023-04-09T08:01:00.326Z,16.200000
2023-04-09T08:02:00.457Z,16.200000
2023-04-09T08:03:00.562Z,16.200000
2023-04-09T08:06:00.470Z,12.700000
2023-04-09T08:07:00.350Z,12.700000
2023-04-09T08:08:00.474Z,12.700000
2023-04-09T08:09:00.360Z,14.500000
2023-04-09T08:10:03.250Z,14.500000
2023-04-09T08:11:00.385Z,14.500000
2023-04-09T08:12:00.473Z,15.200000
2023-04-09T08:13:00.417Z,15.200000
2023-04-09T08:14:01.712Z,15.200000
2023-04-09T08:15:03.370Z,15.200000
2023-04-09T08:16:00.482Z,14.900000
2023-04-09T08:17:00.424Z,14.900000
2023-04-09T08:18:00.592Z,14.900000
2023-04-09T08:19:00.409Z,14.900000
2023-04-09T08:20:03.213Z,14.900000
2023-04-09T08:21:00.432Z,10.900000
2023-04-09T08:22:00.502Z,10.900000
2023-04-09T08:23:00.452Z,10.900000
2023-04-09T08:24:00.565Z,9.700000
2023-04-09T08:25:03.160Z,9.700000
2023-04-09T08:26:00.524Z,9.200000
2023-04-09T08:27:00.482Z,9.200000
2023-04-09T08:28:01.798Z,10.500000
2023-04-09T08:29:00.499Z,10.500000
2023-04-09T08:30:03.854Z,10.500000
2023-04-09T08:31:00.489Z,10.500000
2023-04-09T08:32:01.811Z,10.500000
2023-04-09T08:33:00.528Z,10.500000
2023-04-09T08:34:00.589Z,11.000000
2023-04-09T08:35:03.039Z,11.000000
2023-04-09T08:36:03.092Z,11.000000
2023-04-09T08:37:00.527Z,11.000000
2023-04-09T08:38:00.580Z,11.000000
2023-04-09T08:39:00.573Z,12.300000
2023-04-09T08:40:03.454Z,12.300000
2023-04-09T08:41:00.537Z,12.300000
2023-04-09T08:42:00.635Z,12.300000
2023-04-09T08:43:00.542Z,12.300000
2023-04-09T08:44:00.603Z,10.400000
2023-04-09T08:45:03.210Z,10.400000
2023-04-09T08:46:01.756Z,10.400000
2023-04-09T08:47:00.558Z,10.400000
2023-04-09T08:48:00.776Z,10.400000
2023-04-09T08:49:00.567Z,14.000000
2023-04-09T08:50:03.583Z,14.000000
2023-04-09T08:51:00.596Z,14.000000
2023-04-09T08:52:01.060Z,14.000000
2023-04-09T08:53:00.573Z,14.000000
2023-04-09T08:54:02.998Z,13.900000
2023-04-09T08:55:03.433Z,13.900000
2023-04-09T08:56:00.654Z,13.900000
2023-04-09T08:57:00.612Z,13.900000
2023-04-09T08:58:00.665Z,13.900000
2023-04-09T08:59:00.620Z,17.100000
2023-04-09T09:00:04.262Z,17.100000
2023-04-09T09:01:00.644Z,12.400000
2023-04-09T09:02:00.842Z,12.400000
2023-04-09T09:03:00.875Z,12.400000
2023-04-09T09:04:00.910Z,14.700000
2023-04-09T09:05:03.156Z,14.700000
2023-04-09T09:06:00.776Z,14.700000
2023-04-09T09:07:00.659Z,19.400000
2023-04-09T09:08:00.743Z,19.400000
2023-04-09T09:09:00.692Z,19.400000
2023-04-09T09:10:03.532Z,13.900000
2023-04-09T09:11:00.710Z,13.900000
2023-04-09T09:12:00.781Z,11.500000
2023-04-09T09:13:00.695Z,11.500000
2023-04-09T09:14:01.738Z,10.900000
2023-04-09T09:15:03.178Z,10.900000
2023-04-09T09:16:00.782Z,10.900000
2023-04-09T09:17:00.745Z,10.900000
2023-04-09T09:18:00.923Z,10.900000
2023-04-09T09:19:00.745Z,10.900000
2023-04-09T09:20:03.583Z,10.800000
2023-04-09T09:21:00.753Z,10.800000
2023-04-09T09:22:00.862Z,10.800000
2023-04-09T09:23:00.788Z,10.800000
2023-04-09T09:24:00.844Z,15.300000
2023-04-09T09:25:03.310Z,15.300000
2023-04-09T09:26:00.833Z,15.300000
2023-04-09T09:27:00.780Z,14.800000
2023-04-09T09:28:01.740Z,14.800000
2023-04-09T09:29:00.792Z,14.800000
2023-04-09T09:30:05.291Z,13.300000
2023-04-09T09:31:00.802Z,13.300000
2023-04-09T09:32:01.744Z,13.300000
2023-04-09T09:33:00.972Z,13.600000
2023-04-09T09:34:00.918Z,13.600000
2023-04-09T09:35:03.230Z,18.700000
2023-04-09T09:36:00.905Z,18.700000
2023-04-09T09:37:00.811Z,18.700000
2023-04-09T09:38:00.921Z,18.700000
2023-04-09T09:39:00.836Z,18.700000
2023-04-09T09:40:03.874Z,19.100000
2023-04-09T09:41:00.825Z,19.100000
2023-04-09T09:42:00.932Z,19.100000
2023-04-09T09:43:00.850Z,23.300000
2023-04-09T09:44:00.915Z,23.300000
2023-04-09T09:45:03.549Z,22.700000
2023-04-09T09:46:01.782Z,22.700000
2023-04-09T09:47:00.868Z,14.300000
2023-04-09T09:48:00.961Z,14.300000
2023-04-09T09:49:00.873Z,14.300000
2023-04-09T09:50:03.889Z,14.700000
2023-04-09T09:51:00.882Z,14.700000
2023-04-09T09:52:00.978Z,14.700000
2023-04-09T09:53:00.909Z,18.500000
2023-04-09T09:54:00.994Z,18.500000
2023-04-09T09:55:04.234Z,22.100000
2023-04-09T09:56:00.991Z,22.100000
2023-04-09T09:57:00.925Z,22.100000
2023-04-09T09:58:01.042Z,15.200000
2023-04-09T09:59:00.916Z,15.200000
2023-04-09T10:00:03.817Z,15.200000
2023-04-09T10:01:00.967Z,15.200000
2023-04-09T10:02:01.220Z,15.200000
2023-04-09T10:03:01.102Z,9.500000
2023-04-09T10:04:01.108Z,9.500000
2023-04-09T10:05:03.719Z,11.400000
2023-04-09T10:06:01.052Z,11.400000
2023-04-09T10:07:00.989Z,11.400000
2023-04-09T10:08:01.071Z,12.300000
2023-04-09T10:09:00.986Z,12.300000
2023-04-09T10:10:04.753Z,19.800000
2023-04-09T10:11:01.014Z,19.800000
2023-04-09T10:12:01.068Z,19.800000
2023-04-09T10:13:01.004Z,12.800000
2023-04-09T10:14:01.722Z,12.800000
2023-04-09T10:15:03.517Z,14.100000
2023-04-09T10:16:01.186Z,14.100000
2023-04-09T10:17:01.040Z,14.100000
2023-04-09T10:18:01.175Z,14.000000
2023-04-09T10:19:01.026Z,14.000000
2023-04-09T10:20:07.749Z,14.000000
2023-04-09T10:21:01.049Z,14.000000
2023-04-09T10:22:34.624Z,9.900000
2023-04-09T10:23:01.057Z,9.900000
2023-04-09T10:24:01.152Z,9.900000
2023-04-09T10:25:03.588Z,16.500000
2023-04-09T10:26:01.357Z,16.500000
2023-04-09T10:27:01.080Z,16.500000
2023-04-09T10:28:02.171Z,16.500000
2023-04-09T10:29:01.076Z,16.500000
2023-04-09T10:30:04.741Z,12.200000
2023-04-09T10:31:01.207Z,12.200000
2023-04-09T10:32:01.796Z,11.400000
2023-04-09T10:33:01.151Z,11.400000
2023-04-09T10:34:03.016Z,11.400000
2023-04-09T10:35:03.642Z,10.400000
2023-04-09T10:36:01.866Z,10.400000
2023-04-09T10:37:01.105Z,10.400000
2023-04-09T10:38:02.358Z,9.400000
2023-04-09T10:39:01.139Z,9.400000
2023-04-09T10:40:05.293Z,9.400000
2023-04-09T10:41:01.130Z,9.400000
2023-04-09T10:42:05.575Z,15.500000
2023-04-09T10:43:01.154Z,15.500000
2023-04-09T10:44:02.131Z,15.500000
2023-04-09T10:45:03.745Z,18.800000
2023-04-09T10:46:08.570Z,18.800000
2023-04-09T10:47:01.154Z,18.800000
2023-04-09T10:48:01.312Z,13.000000
2023-04-09T10:49:01.158Z,13.000000
2023-04-09T10:50:07.768Z,13.000000
2023-04-09T10:51:00.190Z,12.400000
2023-04-09T10:52:02.337Z,12.400000
2023-04-09T10:53:00.208Z,12.400000
2023-04-09T10:54:00.653Z,12.400000
2023-04-09T10:55:02.682Z,12.400000
2023-04-09T10:56:02.581Z,12.400000
2023-04-09T10:57:00.216Z,12.400000
2023-04-09T10:58:00.773Z,11.500000
2023-04-09T10:59:00.224Z,11.500000
2023-04-09T11:00:05.162Z,11.500000
2023-04-09T11:01:00.229Z,16.200000
2023-04-09T11:02:01.464Z,16.200000
2023-04-09T11:03:00.399Z,17.800000
2023-04-09T11:04:02.112Z,17.800000
2023-04-09T11:05:02.969Z,18.300000
2023-04-09T11:06:00.997Z,18.300000
2023-04-09T11:07:00.254Z,18.300000
2023-04-09T11:08:01.273Z,16.500000
2023-04-09T11:09:00.270Z,16.500000
2023-04-09T11:10:03.856Z,16.500000
2023-04-09T11:11:00.273Z,14.800000
2023-04-09T11:12:00.365Z,14.800000
2023-04-09T11:13:00.279Z,14.800000
2023-04-09T11:14:00.768Z,10.900000
2023-04-09T11:15:02.946Z,10.900000
2023-04-09T11:16:01.609Z,19.500000
2023-04-09T11:17:00.293Z,19.500000
2023-04-09T11:18:01.788Z,22.000000
2023-04-09T11:19:00.293Z,22.000000
2023-04-09T11:20:03.491Z,22.000000
2023-04-09T11:21:00.326Z,11.600000
2023-04-09T11:22:01.779Z,11.600000
2023-04-09T11:23:00.314Z,11.600000
2023-04-09T11:24:00.411Z,11.600000
2023-04-09T11:25:02.810Z,11.600000
2023-04-09T11:26:01.755Z,11.600000
2023-04-09T11:27:00.349Z,11.600000
2023-04-09T11:28:00.434Z,8.400000
2023-04-09T11:29:00.348Z,8.400000
2023-04-09T11:30:03.330Z,8.400000
2023-04-09T11:31:00.356Z,8.700000
2023-04-09T11:32:01.780Z,8.700000
2023-04-09T11:33:00.412Z,8.700000
2023-04-09T11:34:00.467Z,9.300000
2023-04-09T11:35:02.941Z,9.300000
2023-04-09T11:36:01.877Z,15.800000
2023-04-09T11:37:00.372Z,15.800000
2023-04-09T11:38:00.454Z,15.800000
2023-04-09T11:39:00.419Z,14.900000
2023-04-09T11:40:03.544Z,14.900000
2023-04-09T11:41:00.397Z,15.200000
2023-04-09T11:42:00.475Z,15.200000
2023-04-09T11:43:00.408Z,15.600000
2023-04-09T11:44:01.747Z,15.600000
2023-04-09T11:45:03.824Z,15.600000
2023-04-09T11:46:00.531Z,22.600000
2023-04-09T11:47:00.524Z,22.600000
2023-04-09T11:48:00.578Z,18.400000
2023-04-09T11:49:00.432Z,18.400000
2023-04-09T11:50:03.169Z,18.400000
2023-04-09T11:51:32.702Z,18.400000
2023-04-09T11:52:00.557Z,18.400000
2023-04-09T11:53:00.462Z,18.400000
2023-04-09T11:54:00.530Z,14.000000
2023-04-09T11:55:03.299Z,14.000000
2023-04-09T11:56:00.545Z,16.100000
2023-04-09T11:57:00.477Z,16.100000